Time;durP1;ratioP1;P1;durP2;ratioP2;P2;SDS_P1;SDS_P2;PMS_P1;PMS_P2;Temp;Humidity;BMP_temperature;BMP_pressure;BME280_temperature;BME280_humidity;BME280_pressure;Samples;Min_cycle;Max_cycle;Signal;HPM_P1;HPM_P2
2021/03/28 00:01:08;;;;;;;2.40;1.53;;;4.90;99.90;;;;;;5113405;28;20475;-68
2021/03/28 00:03:40;;;;;;;1.60;1.20;;;5.00;99.90;;;;;;5113561;28;20436;-69
2021/03/28 00:06:18;;;;;;;2.40;1.20;;;5.00;99.90;;;;;;5113671;28;20473;-68
2021/03/28 00:08:48;;;;;;;2.60;1.67;;;4.90;99.90;;;;;;5113165;28;20472;-69
2021/03/28 00:11:19;;;;;;;2.00;1.23;;;5.00;99.90;;;;;;5113312;27;20460;-68
2021/03/28 00:13:53;;;;;;;2.23;1.90;;;5.00;99.90;;;;;;5113558;28;20444;-69
2021/03/28 00:16:23;;;;;;;1.83;1.00;;;5.00;99.90;;;;;;5113459;28;21094;-70
2021/03/28 00:18:56;;;;;;;3.20;1.37;;;5.10;99.90;;;;;;5112961;28;20458;-69
2021/03/28 00:21:26;;;;;;;4.70;1.50;;;5.00;99.90;;;;;;5113214;28;20517;-68
2021/03/28 00:23:55;;;;;;;6.67;1.67;;;5.00;99.90;;;;;;5112938;28;20429;-68
2021/03/28 00:26:28;;;;;;;6.30;1.73;;;5.00;99.90;;;;;;5113331;28;20440;-68
2021/03/28 00:29:07;;;;;;;7.33;1.30;;;5.10;99.90;;;;;;5112826;28;20465;-69
2021/03/28 00:31:39;;;;;;;3.97;1.30;;;5.00;99.90;;;;;;5112871;28;20467;-68
2021/03/28 00:34:21;;;;;;;1.97;1.30;;;5.10;99.90;;;;;;5112928;28;20505;-67
2021/03/28 00:36:52;;;;;;;9.23;2.67;;;5.10;99.90;;;;;;5112215;28;20424;-68
2021/03/28 00:39:38;;;;;;;2.40;1.10;;;5.10;99.90;;;;;;5112803;28;20425;-68
2021/03/28 00:42:10;;;;;;;3.60;1.40;;;5.00;99.90;;;;;;5112604;28;20444;-68
2021/03/28 00:44:48;;;;;;;1.97;1.50;;;5.00;99.90;;;;;;5112595;28;20441;-69
2021/03/28 00:47:22;;;;;;;1.67;1.00;;;5.00;99.90;;;;;;5112705;28;20433;-68
2021/03/28 00:49:58;;;;;;;1.37;1.23;;;5.00;99.90;;;;;;5112084;28;20874;-68
2021/03/28 00:52:31;;;;;;;2.63;1.10;;;5.00;99.90;;;;;;5112745;28;20436;-68
2021/03/28 00:55:02;;;;;;;2.33;1.30;;;5.10;99.90;;;;;;5112565;28;20433;-68
2021/03/28 00:57:34;;;;;;;1.90;1.30;;;5.00;99.90;;;;;;5112657;28;20421;-68
2021/03/28 01:00:35;;;;;;;1.80;1.70;;;5.00;99.90;;;;;;5112090;28;20838;-69
2021/03/28 01:03:08;;;;;;;3.97;1.40;;;5.00;99.90;;;;;;5112270;28;20451;-70
2021/03/28 01:05:45;;;;;;;2.50;1.47;;;5.00;99.90;;;;;;5112470;28;20501;-69
2021/03/28 01:08:20;;;;;;;3.07;1.43;;;5.00;99.90;;;;;;5112240;28;20471;-69
2021/03/28 01:11:10;;;;;;;2.60;1.30;;;5.00;99.90;;;;;;5111594;28;20455;-68
2021/03/28 01:14:21;;;;;;;7.53;1.70;;;4.90;99.90;;;;;;5112365;28;20520;-69
2021/03/28 01:17:22;;;;;;;2.70;1.43;;;4.90;99.90;;;;;;5112031;28;20429;-69
2021/03/28 01:20:24;;;;;;;4.63;1.57;;;4.80;99.90;;;;;;5111918;28;20454;-69
2021/03/28 01:23:03;;;;;;;3.20;1.20;;;4.80;99.90;;;;;;5112127;28;20441;-68
2021/03/28 01:25:59;;;;;;;4.30;1.90;;;4.80;99.90;;;;;;5111709;28;20432;-69
2021/03/28 01:28:31;;;;;;;3.67;1.40;;;4.80;99.90;;;;;;5111940;28;20548;-69
2021/03/28 01:31:02;;;;;;;2.10;1.23;;;4.80;99.90;;;;;;5111475;28;20448;-69
2021/03/28 01:33:41;;;;;;;3.83;1.73;;;4.70;99.90;;;;;;5112152;28;20427;-68
2021/03/28 01:36:12;;;;;;;7.10;1.43;;;4.70;99.90;;;;;;5111818;28;20413;-69
2021/03/28 01:38:42;;;;;;;3.47;1.60;;;4.70;99.90;;;;;;5111428;28;20454;-69
2021/03/28 01:41:14;;;;;;;3.43;1.30;;;4.70;99.90;;;;;;5111571;28;20964;-68
2021/03/28 01:43:49;;;;;;;5.53;1.13;;;4.70;99.90;;;;;;5111806;28;20426;-69
2021/03/28 01:46:29;;;;;;;1.83;1.30;;;4.70;99.90;;;;;;5111672;28;20432;-69
2021/03/28 01:48:58;;;;;;;6.63;1.60;;;4.60;99.90;;;;;;5111535;28;20517;-68
2021/03/28 01:51:51;;;;;;;3.67;1.63;;;4.60;99.90;;;;;;5111492;28;20446;-69
2021/03/28 01:54:30;;;;;;;2.77;1.60;;;4.60;99.90;;;;;;5109014;28;20471;-68
2021/03/28 01:57:02;;;;;;;3.20;1.93;;;4.60;99.90;;;;;;5111489;28;20450;-69
2021/03/28 01:59:47;;;;;;;4.67;1.23;;;4.60;99.90;;;;;;5111227;28;20531;-69
2021/03/28 02:02:35;;;;;;;3.27;1.27;;;4.60;99.90;;;;;;5111328;28;20570;-69
2021/03/28 02:05:16;;;;;;;3.00;1.60;;;4.50;99.90;;;;;;5111431;28;20441;-68
2021/03/28 02:08:07;;;;;;;2.23;1.40;;;4.60;99.90;;;;;;5111382;28;20422;-69
2021/03/28 02:10:53;;;;;;;5.20;1.83;;;4.60;99.90;;;;;;5110862;28;20469;-69
2021/03/28 02:13:27;;;;;;;3.60;1.37;;;4.60;99.90;;;;;;5111041;28;20447;-69
2021/03/28 02:16:10;;;;;;;4.73;1.70;;;4.60;99.90;;;;;;5111338;28;20518;-69
2021/03/28 02:19:05;;;;;;;3.43;1.30;;;4.50;99.90;;;;;;5111305;28;20427;-68
2021/03/28 02:21:53;;;;;;;4.90;1.47;;;4.50;99.90;;;;;;5109629;28;20464;-68
2021/03/28 02:24:25;;;;;;;1.90;1.23;;;4.40;99.90;;;;;;5110881;28;20924;-69
2021/03/28 02:27:05;;;;;;;11.03;1.87;;;4.30;99.90;;;;;;5111205;28;20420;-69
2021/03/28 02:29:44;;;;;;;3.33;1.53;;;4.30;99.90;;;;;;5111023;28;20473;-69
2021/03/28 02:32:31;;;;;;;2.57;1.10;;;4.30;99.90;;;;;;5110888;28;20468;-68
2021/03/28 02:35:10;;;;;;;4.90;1.50;;;4.20;99.90;;;;;;5111349;28;21017;-68
2021/03/28 02:37:47;;;;;;;1.70;1.10;;;4.20;99.90;;;;;;5111222;28;20427;-69
2021/03/28 02:40:19;;;;;;;2.50;1.30;;;4.20;99.90;;;;;;5110657;28;20467;-68
2021/03/28 02:42:59;;;;;;;2.67;1.63;;;4.20;99.90;;;;;;5111332;28;20454;-68
2021/03/28 02:45:29;;;;;;;2.60;1.40;;;4.20;99.90;;;;;;5111024;28;20440;-68
2021/03/28 02:48:23;;;;;;;3.60;1.57;;;4.20;99.90;;;;;;5111213;28;20428;-69
2021/03/28 02:51:17;;;;;;;2.40;1.17;;;4.10;99.90;;;;;;5110689;28;20456;-68
2021/03/28 02:54:14;;;;;;;2.67;1.60;;;4.10;99.90;;;;;;5110897;28;20503;-69
2021/03/28 02:56:53;;;;;;;4.13;1.43;;;4.10;99.90;;;;;;5105843;28;20454;-68
2021/03/28 02:59:31;;;;;;;2.83;1.40;;;4.10;99.90;;;;;;5111339;28;20492;-68
2021/03/28 03:02:39;;;;;;;3.53;1.27;;;4.00;99.90;;;;;;5114888;28;20444;-68
2021/03/28 03:05:50;;;;;;;4.13;1.50;;;3.90;99.90;;;;;;5114781;28;20432;-68
2021/03/28 03:08:22;;;;;;;1.50;1.40;;;3.80;99.90;;;;;;5114563;28;20475;-68
2021/03/28 03:11:40;;;;;;;4.77;1.70;;;3.70;99.90;;;;;;5114030;28;20447;-69
2021/03/28 03:14:31;;;;;;;2.37;1.67;;;3.60;99.90;;;;;;5114686;28;20428;-68
2021/03/28 03:17:40;;;;;;;2.40;1.27;;;3.50;99.90;;;;;;5114613;28;20416;-69
2021/03/28 03:20:24;;;;;;;2.10;1.60;;;3.40;99.90;;;;;;5077478;28;20518;-69
2021/03/28 03:23:22;;;;;;;1.63;1.43;;;3.40;99.90;;;;;;5114724;28;20540;-69
2021/03/28 03:26:27;;;;;;;3.73;1.90;;;3.30;99.90;;;;;;5113941;28;20436;-68
2021/03/28 03:29:17;;;;;;;2.90;1.20;;;3.40;99.90;;;;;;5082638;28;20468;-69
2021/03/28 03:32:05;;;;;;;2.10;1.80;;;3.30;99.90;;;;;;5114014;28;20544;-68
2021/03/28 03:35:05;;;;;;;4.83;1.23;;;3.20;99.90;;;;;;5114217;28;20578;-69
2021/03/28 03:38:10;;;;;;;3.53;1.33;;;3.20;99.90;;;;;;5114209;28;20448;-69
2021/03/28 03:40:51;;;;;;;5.37;1.17;;;3.20;99.90;;;;;;5113645;28;20460;-68
2021/03/28 03:43:58;;;;;;;3.27;1.20;;;3.10;99.90;;;;;;5114128;28;20427;-69
2021/03/28 03:46:54;;;;;;;4.67;1.63;;;3.10;99.90;;;;;;5114061;28;20522;-69
2021/03/28 03:49:47;;;;;;;2.63;1.30;;;3.00;99.90;;;;;;5113568;28;20512;-69
2021/03/28 03:52:38;;;;;;;5.40;1.83;;;2.90;99.90;;;;;;5113775;28;20490;-69
2021/03/28 03:55:16;;;;;;;5.53;2.00;;;2.90;99.90;;;;;;5113578;28;20424;-69
2021/03/28 03:57:46;;;;;;;3.43;1.80;;;2.80;99.90;;;;;;5113730;28;20425;-69
2021/03/28 04:00:19;;;;;;;2.17;1.67;;;2.80;99.90;;;;;;5113533;28;20493;-69
2021/03/28 04:02:54;;;;;;;2.03;1.47;;;2.70;99.90;;;;;;5113527;28;20515;-69
2021/03/28 04:05:35;;;;;;;3.30;1.70;;;2.70;99.90;;;;;;5113755;28;20457;-69
2021/03/28 04:08:14;;;;;;;2.90;1.70;;;2.60;99.90;;;;;;5113456;28;20477;-70
2021/03/28 04:10:48;;;;;;;2.70;1.50;;;2.50;99.90;;;;;;5091572;28;20460;-69
2021/03/28 04:13:35;;;;;;;3.43;1.60;;;2.50;99.90;;;;;;5093194;28;20646;-70
2021/03/28 04:16:21;;;;;;;4.03;1.93;;;2.40;99.90;;;;;;5093508;28;20976;-70
2021/03/28 04:19:22;;;;;;;2.03;1.80;;;2.30;99.90;;;;;;5092947;28;20450;-70
2021/03/28 04:22:12;;;;;;;3.37;1.67;;;2.20;99.90;;;;;;5092967;28;20524;-69
2021/03/28 04:24:51;;;;;;;3.40;1.80;;;2.30;99.90;;;;;;5092567;28;20512;-69
2021/03/28 04:27:43;;;;;;;1.97;1.80;;;2.20;99.90;;;;;;5092880;28;20447;-68
2021/03/28 04:30:31;;;;;;;3.53;2.40;;;2.20;99.90;;;;;;5092499;28;20997;-69
2021/03/28 04:33:07;;;;;;;2.00;1.90;;;2.10;99.90;;;;;;5092531;28;20443;-70
2021/03/28 04:35:59;;;;;;;1.93;1.57;;;2.10;99.90;;;;;;5092723;28;20431;-70
2021/03/28 04:38:38;;;;;;;1.53;1.20;;;2.10;99.90;;;;;;5094728;28;20854;-69
2021/03/28 04:41:27;;;;;;;2.30;1.33;;;2.00;99.90;;;;;;5112690;28;20436;-70
2021/03/28 04:44:23;;;;;;;4.50;1.97;;;2.00;99.90;;;;;;5112785;28;20982;-69
2021/03/28 04:47:28;;;;;;;2.40;1.80;;;2.00;99.90;;;;;;5113435;28;20474;-69
2021/03/28 04:50:04;;;;;;;3.10;1.70;;;1.90;99.90;;;;;;5112844;28;20480;-70
2021/03/28 04:53:10;;;;;;;1.83;1.70;;;1.90;99.90;;;;;;5112813;28;20434;-70
2021/03/28 04:56:20;;;;;;;8.33;1.70;;;1.90;99.90;;;;;;5112640;28;20432;-70
2021/03/28 04:59:20;;;;;;;1.40;1.30;;;2.00;99.90;;;;;;5112376;28;20420;-70
2021/03/28 05:02:04;;;;;;;5.00;1.60;;;1.90;99.90;;;;;;5112511;28;20446;-68
2021/03/28 05:05:01;;;;;;;1.43;1.13;;;1.90;99.90;;;;;;5112374;28;20416;-69
2021/03/28 05:08:10;;;;;;;5.20;1.70;;;1.90;99.90;;;;;;5112598;28;20432;-68
2021/03/28 05:11:00;;;;;;;4.70;1.87;;;1.80;99.90;;;;;;5111625;28;20462;-68
2021/03/28 05:14:20;;;;;;;3.73;1.70;;;1.80;99.90;;;;;;5104845;28;20436;-69
2021/03/28 05:17:15;;;;;;;6.73;2.30;;;1.80;99.90;;;;;;5025835;28;20481;-69
2021/03/28 05:20:15;;;;;;;4.63;1.93;;;1.90;99.90;;;;;;5101538;28;20743;-68
2021/03/28 05:23:20;;;;;;;5.90;1.90;;;1.90;99.90;;;;;;5101391;28;20434;-68
2021/03/28 05:26:15;;;;;;;2.83;1.70;;;1.90;99.90;;;;;;5099657;28;20797;-68
2021/03/28 05:29:18;;;;;;;2.90;1.67;;;1.90;99.90;;;;;;5101403;28;20496;-69
2021/03/28 05:32:19;;;;;;;3.60;1.53;;;1.90;99.90;;;;;;5058908;28;20998;-68
2021/03/28 05:35:27;;;;;;;2.07;1.80;;;1.90;99.90;;;;;;5099187;28;20478;-70
2021/03/28 05:38:35;;;;;;;2.40;1.30;;;2.00;99.90;;;;;;5100658;28;20437;-69
2021/03/28 05:41:33;;;;;;;2.63;1.60;;;2.00;99.90;;;;;;5046602;28;20862;-68
2021/03/28 05:44:27;;;;;;;4.67;2.63;;;2.00;99.90;;;;;;5099534;28;20440;-69
2021/03/28 05:47:37;;;;;;;4.93;3.00;;;2.10;99.90;;;;;;5100553;28;20421;-69
2021/03/28 05:50:27;;;;;;;4.47;3.83;;;2.10;99.90;;;;;;5067789;28;20524;-69
2021/03/28 05:53:39;;;;;;;4.70;3.40;;;2.20;99.90;;;;;;5092214;28;20437;-70
2021/03/28 05:56:43;;;;;;;5.57;3.80;;;2.20;99.90;;;;;;5090480;28;20480;-69
2021/03/28 05:59:43;;;;;;;4.30;3.43;;;2.30;99.90;;;;;;5075141;28;20431;-67
2021/03/28 06:03:10;;;;;;;5.00;2.57;;;2.40;99.90;;;;;;5097090;28;20540;-67
2021/03/28 06:06:14;;;;;;;5.03;2.80;;;2.70;99.90;;;;;;5099849;28;20865;-67
2021/03/28 06:09:18;;;;;;;6.97;4.20;;;2.80;99.90;;;;;;5102060;28;20479;-67
2021/03/28 06:12:17;;;;;;;7.10;3.40;;;3.00;99.90;;;;;;5100786;28;20451;-67
2021/03/28 06:15:02;;;;;;;13.30;2.83;;;3.10;99.90;;;;;;5101037;28;20437;-67
2021/03/28 06:18:10;;;;;;;3.77;3.37;;;3.10;99.90;;;;;;5101001;28;20495;-67
2021/03/28 06:21:00;;;;;;;9.93;3.40;;;3.20;99.90;;;;;;5094008;28;20816;-67
2021/03/28 06:24:10;;;;;;;4.17;3.00;;;3.20;99.90;;;;;;5100773;28;20434;-67
2021/03/28 06:27:24;;;;;;;6.00;3.20;;;3.30;99.90;;;;;;5099917;28;20900;-67
2021/03/28 06:30:35;;;;;;;6.90;3.30;;;3.40;99.90;;;;;;5100483;28;20478;-67
2021/03/28 06:33:40;;;;;;;3.93;3.17;;;3.50;99.90;;;;;;5100315;28;20425;-69
2021/03/28 06:36:39;;;;;;;6.03;2.93;;;3.50;99.90;;;;;;5103305;28;20444;-69
2021/03/28 06:39:40;;;;;;;5.80;4.00;;;3.60;99.90;;;;;;5107454;28;20507;-66
2021/03/28 06:42:42;;;;;;;3.43;3.13;;;3.90;99.90;;;;;;5100072;28;20463;-66
2021/03/28 06:45:48;;;;;;;6.20;4.30;;;3.90;99.90;;;;;;5105107;28;20940;-65
2021/03/28 06:48:50;;;;;;;5.73;3.50;;;4.00;99.90;;;;;;5103166;28;20450;-66
2021/03/28 06:51:43;;;;;;;4.07;3.67;;;4.20;99.90;;;;;;5096375;28;20445;-65
2021/03/28 06:54:53;;;;;;;5.33;3.80;;;4.30;99.90;;;;;;5104901;28;20424;-65
2021/03/28 06:58:06;;;;;;;2.33;2.13;;;4.50;99.90;;;;;;5104029;28;20436;-65
2021/03/28 07:01:07;;;;;;;5.33;3.27;;;4.60;99.90;;;;;;5074254;28;21002;-66
2021/03/28 07:04:03;;;;;;;3.50;3.10;;;4.70;99.90;;;;;;5097907;28;20428;-66
2021/03/28 07:06:40;;;;;;;6.10;5.50;;;4.80;99.90;;;;;;5095166;28;20434;-66
2021/03/28 07:09:34;;;;;;;3.50;3.00;;;4.90;99.90;;;;;;5113533;28;20472;-65
2021/03/28 07:12:06;;;;;;;5.23;3.03;;;5.10;99.90;;;;;;5105190;28;20493;-65
2021/03/28 07:15:22;;;;;;;8.17;2.77;;;5.30;99.90;;;;;;5103049;27;20420;-65
2021/03/28 07:18:28;;;;;;;5.80;2.57;;;5.40;99.90;;;;;;5102353;28;20470;-66
2021/03/28 07:21:19;;;;;;;7.50;2.10;;;5.60;99.90;;;;;;5101289;28;20448;-66
2021/03/28 07:24:22;;;;;;;5.83;2.30;;;5.70;99.90;;;;;;5101119;28;20480;-65
2021/03/28 07:27:18;;;;;;;5.13;2.50;;;5.80;99.90;;;;;;5111320;28;20442;-65
2021/03/28 07:30:19;;;;;;;8.73;2.60;;;5.90;99.90;;;;;;5082309;28;20471;-66
2021/03/28 07:33:42;;;;;;;2.00;1.77;;;5.90;99.90;;;;;;5100782;28;20649;-68
2021/03/28 07:36:45;;;;;;;4.20;2.10;;;6.10;99.90;;;;;;5102385;28;20427;-66
2021/03/28 07:39:46;;;;;;;5.40;2.70;;;6.20;99.90;;;;;;5105843;28;20520;-66
2021/03/28 07:42:59;;;;;;;2.10;1.90;;;6.40;99.90;;;;;;5101979;28;20478;-66
2021/03/28 07:45:59;;;;;;;5.83;3.13;;;6.50;99.90;;;;;;5049129;28;20492;-66
2021/03/28 07:49:03;;;;;;;7.73;4.17;;;6.60;99.90;;;;;;5049236;28;20444;-68
2021/03/28 07:52:12;;;;;;;10.30;6.20;;;6.60;99.90;;;;;;5074086;28;20477;-67
2021/03/28 07:55:09;;;;;;;3.83;2.80;;;6.80;99.90;;;;;;5104016;28;20436;-68
2021/03/28 07:57:53;;;;;;;6.20;1.93;;;6.90;99.90;;;;;;5092386;28;20499;-68
2021/03/28 08:00:44;;;;;;;6.77;2.00;;;7.00;99.90;;;;;;5094962;28;20483;-67
2021/03/28 08:03:46;;;;;;;7.53;2.20;;;7.20;99.90;;;;;;5092445;28;20447;-68
2021/03/28 08:06:37;;;;;;;11.73;3.00;;;7.20;99.90;;;;;;5092588;28;20459;-67
2021/03/28 08:09:33;;;;;;;4.30;2.00;;;7.30;99.90;;;;;;5099358;28;20474;-68
2021/03/28 08:12:20;;;;;;;4.20;2.00;;;7.40;99.90;;;;;;5105989;28;20469;-68
2021/03/28 08:15:19;;;;;;;4.30;1.80;;;7.50;99.90;;;;;;5112575;28;20434;-68
2021/03/28 08:17:56;;;;;;;8.80;1.97;;;7.50;99.90;;;;;;5091626;27;20496;-68
2021/03/28 08:20:47;;;;;;;4.17;1.53;;;7.60;99.90;;;;;;5091746;28;20479;-68
2021/03/28 08:23:56;;;;;;;15.50;2.03;;;7.60;99.90;;;;;;5092265;28;20438;-68
2021/03/28 08:26:43;;;;;;;2.73;1.83;;;7.70;99.90;;;;;;5091833;28;20940;-68
2021/03/28 08:29:45;;;;;;;3.80;1.80;;;7.70;99.90;;;;;;5091618;28;20480;-68
2021/03/28 08:32:31;;;;;;;4.60;2.13;;;7.90;99.90;;;;;;5091998;28;20474;-67
2021/03/28 08:35:29;;;;;;;13.73;1.90;;;7.90;99.90;;;;;;5091845;28;20442;-68
2021/03/28 08:38:29;;;;;;;3.00;1.57;;;8.00;99.90;;;;;;5097357;28;20421;-67
2021/03/28 08:41:27;;;;;;;6.57;1.80;;;8.10;99.90;;;;;;5100301;28;20459;-68
2021/03/28 08:44:39;;;;;;;4.00;1.73;;;8.20;99.90;;;;;;5100436;28;20423;-67
2021/03/28 08:47:49;;;;;;;6.30;1.63;;;8.30;99.90;;;;;;5027622;28;20517;-67
2021/03/28 08:50:26;;;;;;;6.13;1.90;;;8.40;99.90;;;;;;5022809;28;20992;-69
2021/03/28 08:53:21;;;;;;;6.37;2.87;;;8.50;99.90;;;;;;5091089;28;20467;-69
2021/03/28 08:56:33;;;;;;;6.10;1.97;;;8.60;99.90;;;;;;5102240;28;20428;-68
2021/03/28 08:59:14;;;;;;;4.20;2.43;;;8.70;99.90;;;;;;5100799;28;20417;-69
2021/03/28 09:01:48;;;;;;;4.82;1.90;;;8.80;99.90;;;;;;5100792;28;20427;-67
2021/03/28 09:04:23;;;;;;;2.50;1.50;;;9.00;99.90;;;;;;5100550;28;20191;-68
2021/03/28 09:07:13;;;;;;;3.67;1.40;;;9.10;99.90;;;;;;5103602;27;20451;-68
2021/03/28 09:09:54;;;;;;;6.10;1.90;;;9.00;99.90;;;;;;5101505;28;20983;-67
2021/03/28 09:12:54;;;;;;;4.10;1.60;;;8.90;99.90;;;;;;5103537;28;20466;-67
2021/03/28 09:15:32;;;;;;;4.13;1.43;;;8.90;99.90;;;;;;5102036;28;20511;-67
2021/03/28 09:18:14;;;;;;;7.07;1.80;;;8.90;99.90;;;;;;5103392;28;20448;-67
2021/03/28 09:20:55;;;;;;;3.73;1.50;;;9.00;99.90;;;;;;5101419;28;20445;-68
2021/03/28 09:23:43;;;;;;;1.83;1.17;;;8.90;99.90;;;;;;5103317;28;20789;-68
2021/03/28 09:26:40;;;;;;;2.80;1.27;;;8.80;99.90;;;;;;5102807;28;20433;-67
2021/03/28 09:29:33;;;;;;;3.43;1.60;;;8.90;99.90;;;;;;5092940;28;20476;-67
2021/03/28 09:32:18;;;;;;;2.83;1.57;;;8.90;99.90;;;;;;5101148;28;20552;-68
2021/03/28 09:35:00;;;;;;;6.90;1.53;;;8.90;99.90;;;;;;5101813;28;20420;-66
2021/03/28 09:37:37;;;;;;;3.97;1.57;;;9.00;99.90;;;;;;5102260;28;20961;-66
2021/03/28 09:40:21;;;;;;;5.27;1.47;;;9.30;99.90;;;;;;5100767;28;20417;-68
2021/03/28 09:43:07;;;;;;;4.93;1.50;;;9.40;99.90;;;;;;5102306;28;20440;-67
2021/03/28 09:46:16;;;;;;;5.33;1.20;;;9.50;99.90;;;;;;5100222;28;20797;-67
2021/03/28 09:49:14;;;;;;;11.10;2.30;;;9.60;99.90;;;;;;5102700;28;20453;-68
2021/03/28 09:52:23;;;;;;;4.23;1.50;;;9.70;99.40;;;;;;5101149;28;20452;-66
2021/03/28 09:55:27;;;;;;;5.43;1.47;;;9.80;99.90;;;;;;5099595;28;20929;-66
2021/03/28 09:58:17;;;;;;;4.50;1.70;;;9.70;99.90;;;;;;5100005;28;20439;-68
2021/03/28 10:00:57;;;;;;;3.83;1.53;;;9.90;99.90;;;;;;5103021;28;20448;-67
2021/03/28 10:03:28;;;;;;;4.80;1.77;;;10.10;98.70;;;;;;5101379;28;20433;-68
2021/03/28 10:06:02;;;;;;;3.03;1.60;;;10.10;96.40;;;;;;5099906;28;20440;-68
2021/03/28 10:08:36;;;;;;;4.87;1.80;;;9.80;96.50;;;;;;5099620;28;20445;-67
2021/03/28 10:11:18;;;;;;;5.30;1.67;;;9.90;97.40;;;;;;5100303;28;20593;-68
2021/03/28 10:14:20;;;;;;;4.23;1.73;;;10.10;98.50;;;;;;5101674;28;20450;-68
2021/03/28 10:16:58;;;;;;;3.63;1.70;;;10.00;97.30;;;;;;5101527;28;20575;-68
2021/03/28 10:19:35;;;;;;;5.60;1.87;;;9.80;95.30;;;;;;5101275;28;20494;-68
2021/03/28 10:22:17;;;;;;;6.23;1.60;;;10.10;96.60;;;;;;5100378;28;20436;-68
2021/03/28 10:25:18;;;;;;;1.77;1.40;;;10.20;95.70;;;;;;5101491;28;20787;-68
2021/03/28 10:28:38;;;;;;;5.40;2.10;;;10.40;95.10;;;;;;5105761;28;20882;-67
2021/03/28 10:31:23;;;;;;;4.40;1.80;;;10.60;94.70;;;;;;5022172;28;20473;-67
2021/03/28 10:34:43;;;;;;;2.80;1.60;;;10.70;95.70;;;;;;5048097;28;20500;-66
2021/03/28 10:37:32;;;;;;;4.03;2.17;;;10.80;96.60;;;;;;5051416;28;20657;-67
2021/03/28 10:40:27;;;;;;;1.60;1.40;;;10.90;95.00;;;;;;5110904;28;20428;-66
2021/03/28 10:43:05;;;;;;;2.50;1.60;;;10.80;95.50;;;;;;5111022;28;20420;-66
2021/03/28 10:46:15;;;;;;;3.60;1.73;;;11.00;95.90;;;;;;5111287;28;20510;-66
2021/03/28 10:49:24;;;;;;;5.17;1.83;;;10.90;95.90;;;;;;5053282;28;20466;-66
2021/03/28 10:52:30;;;;;;;4.47;1.83;;;11.10;97.30;;;;;;5074785;28;20472;-66
2021/03/28 10:55:42;;;;;;;4.43;1.50;;;11.20;96.60;;;;;;5090866;28;20505;-66
2021/03/28 10:59:01;;;;;;;2.90;1.80;;;11.60;97.20;;;;;;5064544;28;20456;-66
2021/03/28 11:01:59;;;;;;;2.80;2.03;;;11.50;96.30;;;;;;5110713;28;20888;-66
2021/03/28 11:05:02;;;;;;;2.17;1.90;;;11.60;96.60;;;;;;5105699;28;20440;-66
2021/03/28 11:08:02;;;;;;;3.03;1.50;;;11.80;97.30;;;;;;5111311;28;20928;-66
2021/03/28 11:10:51;;;;;;;3.20;2.10;;;11.80;98.20;;;;;;5094698;28;20484;-66
2021/03/28 11:13:54;;;;;;;5.53;2.00;;;11.60;96.00;;;;;;5110969;28;20439;-66
2021/03/28 11:16:52;;;;;;;2.13;1.77;;;11.60;95.10;;;;;;5102128;28;20954;-66
2021/03/28 11:20:03;;;;;;;3.43;1.83;;;11.70;97.80;;;;;;5094129;28;20447;-67
2021/03/28 11:22:44;;;;;;;5.33;1.87;;;11.70;96.90;;;;;;5103629;28;20429;-66
2021/03/28 11:25:21;;;;;;;3.10;2.07;;;11.90;96.20;;;;;;5093777;28;20425;-66
2021/03/28 11:28:31;;;;;;;3.83;1.63;;;11.90;99.00;;;;;;5094119;28;20432;-66
2021/03/28 11:31:14;;;;;;;3.60;2.60;;;12.10;95.60;;;;;;5088469;28;20484;-66
2021/03/28 11:33:45;;;;;;;5.27;2.17;;;11.80;96.40;;;;;;5102057;28;20442;-66
2021/03/28 11:36:21;;;;;;;5.53;1.90;;;12.20;96.30;;;;;;5113922;28;20776;-67
2021/03/28 11:39:16;;;;;;;3.20;1.87;;;12.30;94.40;;;;;;5114005;28;20442;-66
2021/03/28 11:41:53;;;;;;;6.13;2.00;;;12.40;94.50;;;;;;5094676;28;20602;-67
2021/03/28 11:44:35;;;;;;;7.03;1.77;;;12.50;94.30;;;;;;5102733;28;20927;-66
2021/03/28 11:47:27;;;;;;;3.60;2.10;;;12.70;93.70;;;;;;5109441;28;20424;-66
2021/03/28 11:50:15;;;;;;;4.30;1.80;;;12.60;91.90;;;;;;5106576;28;20464;-66
2021/03/28 11:52:58;;;;;;;3.03;1.80;;;12.60;92.00;;;;;;5094229;28;20438;-67
2021/03/28 11:55:43;;;;;;;5.50;2.30;;;12.30;91.20;;;;;;5103232;28;20436;-67
2021/03/28 11:58:29;;;;;;;3.80;2.63;;;12.30;90.20;;;;;;5103970;28;20429;-67
2021/03/28 12:00:57;;;;;;;3.57;1.67;;;12.50;91.70;;;;;;5103531;28;20520;-67
2021/03/28 12:03:34;;;;;;;3.53;1.80;;;12.70;92.20;;;;;;5104008;28;20432;-67
2021/03/28 12:06:08;;;;;;;1.87;1.40;;;12.90;91.10;;;;;;5093153;28;20925;-67
2021/03/28 12:08:56;;;;;;;7.40;2.00;;;12.90;90.80;;;;;;5093508;28;20457;-67
2021/03/28 12:11:42;;;;;;;2.97;2.30;;;13.20;90.70;;;;;;5104881;28;20463;-67
2021/03/28 12:14:35;;;;;;;2.13;1.63;;;13.30;86.80;;;;;;5113479;28;20512;-66
2021/03/28 12:17:27;;;;;;;4.20;1.70;;;13.10;84.40;;;;;;5113404;28;20456;-68
2021/03/28 12:20:20;;;;;;;2.87;1.60;;;13.10;88.10;;;;;;5113180;28;20658;-67
2021/03/28 12:22:56;;;;;;;3.43;1.43;;;13.30;85.20;;;;;;5101822;27;20958;-68
2021/03/28 12:25:35;;;;;;;5.03;1.60;;;13.80;86.70;;;;;;5108681;28;20535;-67
2021/03/28 12:28:35;;;;;;;4.67;1.73;;;14.00;86.30;;;;;;5111870;28;20937;-67
2021/03/28 12:31:30;;;;;;;2.83;1.43;;;14.50;86.20;;;;;;5112677;28;21002;-66
2021/03/28 12:34:16;;;;;;;3.10;2.37;;;14.80;84.80;;;;;;5100026;28;20458;-67
2021/03/28 12:36:58;;;;;;;3.20;2.27;;;14.80;81.70;;;;;;5092668;28;20464;-66
2021/03/28 12:39:28;;;;;;;2.03;1.40;;;15.00;80.70;;;;;;5092191;28;20432;-68
2021/03/28 12:42:18;;;;;;;4.07;1.93;;;14.90;79.20;;;;;;5108667;28;20448;-68
2021/03/28 12:44:47;;;;;;;6.93;2.20;;;14.70;77.90;;;;;;5103321;28;20438;-68
2021/03/28 12:47:29;;;;;;;2.60;1.73;;;15.00;87.70;;;;;;5100663;28;20446;-66
2021/03/28 12:50:01;;;;;;;2.93;1.30;;;15.30;87.00;;;;;;5101757;28;20534;-66
2021/03/28 12:52:40;;;;;;;3.00;1.83;;;15.30;82.10;;;;;;5097706;28;20809;-66
2021/03/28 12:55:43;;;;;;;2.20;1.77;;;15.40;82.50;;;;;;5106937;28;20930;-65
2021/03/28 12:58:36;;;;;;;6.50;1.77;;;14.90;83.60;;;;;;5080245;28;20804;-65
2021/03/28 13:01:06;;;;;;;3.30;2.00;;;15.10;84.00;;;;;;5112557;27;20445;-65
2021/03/28 13:03:37;;;;;;;2.50;1.43;;;15.20;88.20;;;;;;5106839;28;20461;-65
2021/03/28 13:06:25;;;;;;;2.80;1.67;;;15.30;83.50;;;;;;5112575;28;20847;-66
2021/03/28 13:08:54;;;;;;;5.27;1.30;;;15.40;85.50;;;;;;5111929;28;20441;-65
2021/03/28 13:11:42;;;;;;;5.73;1.60;;;15.40;80.30;;;;;;5111081;28;21012;-65
2021/03/28 13:14:25;;;;;;;1.60;1.20;;;15.30;74.60;;;;;;5112002;28;20424;-65
2021/03/28 13:16:57;;;;;;;1.50;1.20;;;15.50;75.60;;;;;;5112019;28;20434;-65
2021/03/28 13:19:26;;;;;;;2.10;1.50;;;15.40;78.80;;;;;;5111770;28;20510;-65
2021/03/28 13:22:00;;;;;;;3.40;1.50;;;15.60;80.20;;;;;;5111736;28;20470;-65
2021/03/28 13:24:27;;;;;;;5.20;1.60;;;15.40;74.30;;;;;;5112241;28;20453;-65
2021/03/28 13:27:02;;;;;;;3.17;1.40;;;15.10;77.50;;;;;;5111711;28;20448;-65
2021/03/28 13:29:36;;;;;;;3.13;1.57;;;14.90;75.50;;;;;;5111596;28;20463;-66
2021/03/28 13:32:15;;;;;;;1.97;1.43;;;14.80;77.60;;;;;;5111467;28;20557;-65
2021/03/28 13:34:55;;;;;;;3.53;1.20;;;15.20;78.40;;;;;;5111265;28;20435;-64
2021/03/28 13:37:39;;;;;;;1.20;1.07;;;15.60;77.70;;;;;;5111873;28;20429;-65
2021/03/28 13:40:20;;;;;;;5.57;1.70;;;15.90;77.50;;;;;;5110981;28;20439;-65
2021/03/28 13:42:50;;;;;;;3.97;1.40;;;15.90;72.50;;;;;;5110508;28;20962;-65
2021/03/28 13:45:32;;;;;;;3.47;1.50;;;16.00;73.70;;;;;;5106400;28;20788;-65
2021/03/28 13:48:20;;;;;;;2.70;1.60;;;16.20;71.90;;;;;;5091508;28;20778;-65
2021/03/28 13:50:50;;;;;;;2.40;1.23;;;16.30;72.00;;;;;;5090746;28;20482;-67
2021/03/28 13:53:31;;;;;;;2.63;1.20;;;16.70;73.90;;;;;;5103661;28;20434;-67
2021/03/28 13:56:24;;;;;;;2.70;1.30;;;16.60;65.50;;;;;;5101441;28;20442;-66
2021/03/28 13:59:05;;;;;;;6.93;1.60;;;16.60;70.80;;;;;;5100239;28;20444;-66
2021/03/28 14:01:43;;;;;;;1.93;1.20;;;16.90;72.00;;;;;;5102578;28;20533;-66
2021/03/28 14:04:27;;;;;;;1.63;1.20;;;17.20;68.90;;;;;;5100559;28;20505;-67
2021/03/28 14:07:22;;;;;;;3.20;1.40;;;17.20;68.10;;;;;;5100894;28;20433;-66
2021/03/28 14:09:55;;;;;;;2.70;1.60;;;17.40;69.20;;;;;;5094087;28;20480;-68
2021/03/28 14:12:30;;;;;;;2.23;1.73;;;17.40;67.80;;;;;;5099141;28;20458;-67
2021/03/28 14:15:23;;;;;;;3.50;1.27;;;17.60;69.60;;;;;;5100211;28;20439;-68
2021/03/28 14:17:57;;;;;;;3.73;1.30;;;17.70;58.40;;;;;;5100895;28;20440;-68
2021/03/28 14:20:28;;;;;;;2.20;1.30;;;17.40;57.80;;;;;;5099027;28;20940;-67
2021/03/28 14:23:00;;;;;;;5.50;1.43;;;16.90;55.90;;;;;;5100152;28;20447;-68
2021/03/28 14:25:33;;;;;;;3.77;3.00;;;16.80;58.20;;;;;;5101109;28;20780;-67
2021/03/28 14:28:34;;;;;;;3.53;2.03;;;16.50;55.50;;;;;;5101242;28;20427;-68
2021/03/28 14:31:03;;;;;;;2.17;1.20;;;16.90;56.40;;;;;;5101919;28;20825;-68
2021/03/28 14:33:42;;;;;;;2.43;1.50;;;17.20;57.40;;;;;;5099559;28;20526;-67
2021/03/28 14:36:31;;;;;;;3.20;1.70;;;17.00;56.70;;;;;;5105306;28;20438;-68
2021/03/28 14:39:39;;;;;;;2.43;1.10;;;16.60;55.90;;;;;;5110481;28;20451;-68
2021/03/28 14:42:13;;;;;;;4.30;1.77;;;16.60;57.20;;;;;;5110630;28;20439;-68
2021/03/28 14:45:03;;;;;;;2.10;1.47;;;16.80;57.90;;;;;;5110930;28;20506;-68